RYR23 EGPF-EGKK
Flight info
| Callsign | RYR23 |
|---|---|
| Flight time | N/A |
| Altitude | 25000 |
| Route | NORBO1H NORBO T256 DCS/N0455F330 DCT ADZOP DCT EGTOC DCT KEPAD L151 DISIT DISIT1G |
| Aircraft | B738/M-V/N |
Departure
| Time | 2026-05-07 19:53 |
|---|---|
| Airport | Glasgow Airport (EGPF) |
Arrival
| Time | N/A |
|---|---|
| Airport | London Gatwick Airport (EGKK) |
| Time | Latitude | Longitude | Altitude | Speed | Heading |
|---|---|---|---|---|---|
| 2026-05-07 19:31 | 55.86710 | -4.43030 | 31 ft | 0 kts | 253° |
| 2026-05-07 19:37 | 55.86711 | -4.43025 | 31 ft | 3 kts | 253° |
| 2026-05-07 19:38 | 55.86715 | -4.42981 | 28 ft | 4 kts | 284° |
| 2026-05-07 19:38 | 55.86703 | -4.42946 | 27 ft | 4 kts | 334° |
| 2026-05-07 19:38 | 55.86690 | -4.42937 | 28 ft | 1 kts | 343° |
| 2026-05-07 19:38 | 55.86688 | -4.42936 | 28 ft | 0 kts | 343° |
| 2026-05-07 19:43 | 55.86782 | -4.42984 | 31 ft | 19 kts | 346° |
| 2026-05-07 19:44 | 55.86897 | -4.42936 | 31 ft | 18 kts | 25° |
| 2026-05-07 19:44 | 55.87025 | -4.42827 | 28 ft | 23 kts | 20° |
| 2026-05-07 19:44 | 55.87187 | -4.42725 | 28 ft | 27 kts | 23° |
| 2026-05-07 19:44 | 55.87223 | -4.42698 | 29 ft | 0 kts | 23° |
| 2026-05-07 19:47 | 55.87229 | -4.42694 | 29 ft | 2 kts | 23° |
| 2026-05-07 19:47 | 55.87250 | -4.42678 | 29 ft | 4 kts | 21° |
| 2026-05-07 19:48 | 55.87285 | -4.42654 | 30 ft | 7 kts | 20° |
| 2026-05-07 19:48 | 55.87343 | -4.42617 | 30 ft | 11 kts | 20° |
| 2026-05-07 19:48 | 55.87421 | -4.42529 | 30 ft | 15 kts | 40° |
| 2026-05-07 19:48 | 55.87495 | -4.42389 | 31 ft | 18 kts | 47° |
| 2026-05-07 19:49 | 55.87595 | -4.42201 | 29 ft | 23 kts | 47° |
| 2026-05-07 19:49 | 55.87721 | -4.41970 | 26 ft | 28 kts | 45° |
| 2026-05-07 19:49 | 55.87855 | -4.41849 | 27 ft | 0 kts | 358° |
| 2026-05-07 19:51 | 55.87858 | -4.41849 | 27 ft | 2 kts | 358° |
| 2026-05-07 19:51 | 55.87900 | -4.41871 | 27 ft | 10 kts | 330° |
| 2026-05-07 19:52 | 55.87901 | -4.42008 | 28 ft | 17 kts | 232° |
| 2026-05-07 19:52 | 55.87882 | -4.42044 | 28 ft | 1 kts | 225° |
| 2026-05-07 19:52 | 55.87719 | -4.42336 | 31 ft | 79 kts | 224° |
| 2026-05-07 19:52 | 55.87107 | -4.43476 | 35 ft | 174 kts | 225° |
| 2026-05-07 19:53 | 55.86107 | -4.45286 | 655 ft | 227 kts | 225° |
| 2026-05-07 19:53 | 55.85018 | -4.47343 | 2165 ft | 225 kts | 224° |
| 2026-05-07 19:53 | 55.83935 | -4.49369 | 3436 ft | 234 kts | 226° |
| 2026-05-07 19:53 | 55.82754 | -4.51695 | 3506 ft | 267 kts | 228° |
| 2026-05-07 19:54 | 55.81416 | -4.54040 | 3503 ft | 266 kts | 220° |
| 2026-05-07 19:54 | 55.80033 | -4.56135 | 3755 ft | 256 kts | 221° |
| 2026-05-07 19:54 | 55.78800 | -4.58272 | 4786 ft | 245 kts | 226° |
| 2026-05-07 19:54 | 55.77602 | -4.60436 | 6093 ft | 245 kts | 224° |
| 2026-05-07 19:55 | 55.76384 | -4.62586 | 7424 ft | 249 kts | 225° |
| 2026-05-07 19:55 | 55.75140 | -4.64788 | 8759 ft | 253 kts | 225° |
| 2026-05-07 19:55 | 55.73908 | -4.67025 | 10027 ft | 258 kts | 226° |
| 2026-05-07 19:55 | 55.72582 | -4.69354 | 10892 ft | 277 kts | 223° |
| 2026-05-07 19:56 | 55.71066 | -4.71640 | 11733 ft | 295 kts | 218° |
| 2026-05-07 19:56 | 55.69305 | -4.73695 | 12594 ft | 312 kts | 205° |
| 2026-05-07 19:56 | 55.67112 | -4.74481 | 13506 ft | 330 kts | 187° |
| 2026-05-07 19:56 | 55.64787 | -4.74535 | 14328 ft | 346 kts | 176° |
| 2026-05-07 19:57 | 55.62385 | -4.73681 | 15284 ft | 355 kts | 169° |
| 2026-05-07 19:57 | 55.59971 | -4.72517 | 16328 ft | 361 kts | 167° |
| 2026-05-07 19:57 | 55.57590 | -4.71132 | 17350 ft | 367 kts | 165° |
| 2026-05-07 19:57 | 55.55170 | -4.69541 | 18342 ft | 373 kts | 162° |
| 2026-05-07 19:58 | 55.54347 | -4.68963 | 18636 ft | 375 kts | 162° |
| 2026-05-07 19:58 | 55.52164 | -4.67381 | 19386 ft | 380 kts | 161° |
| 2026-05-07 19:58 | 55.49725 | -4.65578 | 20181 ft | 385 kts | 161° |
| 2026-05-07 19:59 | 55.47262 | -4.63737 | 20984 ft | 390 kts | 161° |
| 2026-05-07 19:59 | 55.44768 | -4.61863 | 21792 ft | 395 kts | 161° |
| 2026-05-07 19:59 | 55.42285 | -4.59737 | 22577 ft | 403 kts | 154° |
| 2026-05-07 19:59 | 55.39793 | -4.57259 | 23373 ft | 408 kts | 156° |
| 2026-05-07 20:00 | 55.37275 | -4.54948 | 24040 ft | 412 kts | 155° |
| 2026-05-07 20:00 | 55.34762 | -4.52496 | 24557 ft | 417 kts | 155° |
| 2026-05-07 20:00 | 55.32191 | -4.50097 | 24786 ft | 419 kts | 155° |
| 2026-05-07 20:00 | 55.29633 | -4.47660 | 24882 ft | 416 kts | 155° |
| 2026-05-07 20:01 | 55.27087 | -4.45266 | 24945 ft | 416 kts | 155° |
| 2026-05-07 20:01 | 55.24529 | -4.42856 | 24973 ft | 418 kts | 155° |
| 2026-05-07 20:01 | 55.21972 | -4.40446 | 24987 ft | 417 kts | 155° |
| 2026-05-07 20:01 | 55.19414 | -4.38041 | 24996 ft | 416 kts | 155° |
| 2026-05-07 20:02 | 55.16874 | -4.35666 | 25022 ft | 417 kts | 155° |
| 2026-05-07 20:02 | 55.14344 | -4.33290 | 25023 ft | 417 kts | 155° |
| 2026-05-07 20:02 | 55.11778 | -4.30892 | 25021 ft | 417 kts | 155° |
| 2026-05-07 20:02 | 55.09219 | -4.28502 | 25017 ft | 417 kts | 155° |
| 2026-05-07 20:03 | 55.06663 | -4.26112 | 25020 ft | 417 kts | 155° |
| 2026-05-07 20:03 | 55.04099 | -4.23735 | 25020 ft | 418 kts | 155° |
| 2026-05-07 20:03 | 55.01529 | -4.21337 | 25018 ft | 418 kts | 155° |
| 2026-05-07 20:03 | 54.98966 | -4.18960 | 25013 ft | 418 kts | 155° |
| 2026-05-07 20:04 | 54.96429 | -4.16603 | 25015 ft | 417 kts | 155° |
| 2026-05-07 20:04 | 54.93869 | -4.14242 | 25015 ft | 418 kts | 155° |
| 2026-05-07 20:04 | 54.91299 | -4.11854 | 25017 ft | 419 kts | 155° |
| 2026-05-07 20:04 | 54.88722 | -4.09488 | 25015 ft | 419 kts | 155° |
| 2026-05-07 20:05 | 54.86154 | -4.07108 | 25021 ft | 419 kts | 155° |
| 2026-05-07 20:05 | 54.83845 | -4.04991 | 25025 ft | 418 kts | 155° |
| 2026-05-07 20:05 | 54.81268 | -4.02617 | 25025 ft | 419 kts | 155° |
| 2026-05-07 20:05 | 54.78688 | -4.00255 | 25026 ft | 420 kts | 155° |
| 2026-05-07 20:06 | 54.76109 | -3.97883 | 25031 ft | 420 kts | 155° |
| 2026-05-07 20:06 | 54.73524 | -3.95523 | 25025 ft | 419 kts | 155° |
| 2026-05-07 20:06 | 54.70953 | -3.93168 | 25027 ft | 419 kts | 155° |
| 2026-05-07 20:06 | 54.68368 | -3.90815 | 25027 ft | 419 kts | 155° |
| 2026-05-07 20:07 | 54.65782 | -3.88453 | 25028 ft | 420 kts | 155° |
| 2026-05-07 20:07 | 54.63197 | -3.86103 | 25031 ft | 420 kts | 155° |
| 2026-05-07 20:07 | 54.60614 | -3.83753 | 25034 ft | 419 kts | 155° |
| 2026-05-07 20:07 | 54.58030 | -3.81411 | 25034 ft | 419 kts | 155° |
| 2026-05-07 20:08 | 54.55450 | -3.79073 | 25040 ft | 420 kts | 155° |
| 2026-05-07 20:08 | 54.52854 | -3.76724 | 25043 ft | 421 kts | 155° |
| 2026-05-07 20:08 | 54.50299 | -3.74415 | 25044 ft | 420 kts | 155° |
| 2026-05-07 20:08 | 54.47710 | -3.72079 | 25043 ft | 420 kts | 155° |
| 2026-05-07 20:09 | 54.45124 | -3.69751 | 25042 ft | 420 kts | 155° |
| 2026-05-07 20:09 | 54.42528 | -3.67412 | 25044 ft | 421 kts | 155° |
| 2026-05-07 20:09 | 54.39933 | -3.65086 | 25047 ft | 421 kts | 155° |
| 2026-05-07 20:10 | 54.34742 | -3.60433 | 25048 ft | 421 kts | 155° |
| 2026-05-07 20:10 | 54.32111 | -3.58073 | 25052 ft | 421 kts | 155° |
| 2026-05-07 20:10 | 54.29548 | -3.55793 | 25049 ft | 422 kts | 155° |
| 2026-05-07 20:10 | 54.26947 | -3.53462 | 25055 ft | 422 kts | 155° |
| 2026-05-07 20:11 | 54.24342 | -3.51154 | 25052 ft | 422 kts | 155° |
| 2026-05-07 20:11 | 54.21746 | -3.48833 | 25051 ft | 421 kts | 155° |
| 2026-05-07 20:11 | 54.19139 | -3.46529 | 25057 ft | 422 kts | 155° |
| 2026-05-07 20:11 | 54.16536 | -3.44211 | 25055 ft | 422 kts | 155° |
| 2026-05-07 20:12 | 54.13921 | -3.41905 | 25055 ft | 422 kts | 155° |
| 2026-05-07 20:12 | 54.11316 | -3.39592 | 25055 ft | 422 kts | 155° |
| 2026-05-07 20:12 | 54.08710 | -3.37300 | 25054 ft | 422 kts | 155° |
| 2026-05-07 20:12 | 54.06105 | -3.34995 | 25054 ft | 422 kts | 155° |
| 2026-05-07 20:13 | 54.03490 | -3.32700 | 25053 ft | 423 kts | 155° |
| 2026-05-07 20:13 | 54.00875 | -3.30394 | 25054 ft | 423 kts | 155° |
| 2026-05-07 20:13 | 53.98263 | -3.28104 | 25049 ft | 423 kts | 155° |
| 2026-05-07 20:13 | 53.95642 | -3.25804 | 25050 ft | 423 kts | 155° |
| 2026-05-07 20:14 | 53.93028 | -3.23520 | 25049 ft | 423 kts | 155° |
| 2026-05-07 20:14 | 53.90413 | -3.21228 | 25048 ft | 424 kts | 155° |
| 2026-05-07 20:14 | 53.87788 | -3.18942 | 25045 ft | 424 kts | 155° |
| 2026-05-07 20:14 | 53.85167 | -3.16652 | 25044 ft | 423 kts | 155° |
| 2026-05-07 20:15 | 53.82548 | -3.14375 | 25042 ft | 423 kts | 155° |
| 2026-05-07 20:15 | 53.79930 | -3.12098 | 25043 ft | 424 kts | 155° |
| 2026-05-07 20:15 | 53.77304 | -3.09821 | 25041 ft | 424 kts | 155° |
| 2026-05-07 20:15 | 53.74674 | -3.07537 | 25044 ft | 424 kts | 155° |
| 2026-05-07 20:16 | 53.72050 | -3.05269 | 25042 ft | 424 kts | 155° |
| 2026-05-07 20:16 | 53.69424 | -3.02996 | 25042 ft | 424 kts | 155° |
| 2026-05-07 20:16 | 53.66791 | -3.00726 | 25047 ft | 424 kts | 155° |
| 2026-05-07 20:16 | 53.64160 | -2.98458 | 25046 ft | 425 kts | 155° |
| 2026-05-07 20:17 | 53.61530 | -2.96193 | 25047 ft | 425 kts | 155° |
| 2026-05-07 20:17 | 53.58901 | -2.93933 | 25049 ft | 425 kts | 155° |
| 2026-05-07 20:17 | 53.56267 | -2.91673 | 25052 ft | 425 kts | 155° |
| 2026-05-07 20:17 | 53.53635 | -2.89418 | 25076 ft | 425 kts | 155° |
| 2026-05-07 20:18 | 53.50998 | -2.87157 | 25072 ft | 425 kts | 156° |
| 2026-05-07 20:18 | 53.48360 | -2.84908 | 25071 ft | 425 kts | 155° |
| 2026-05-07 20:18 | 53.46622 | -2.83417 | 25071 ft | 425 kts | 155° |
| 2026-05-07 20:18 | 53.43984 | -2.81175 | 25072 ft | 425 kts | 156° |
| 2026-05-07 20:19 | 53.41347 | -2.78924 | 25079 ft | 425 kts | 155° |
| 2026-05-07 20:19 | 53.38704 | -2.76684 | 25071 ft | 426 kts | 155° |
| 2026-05-07 20:19 | 53.36062 | -2.74431 | 25068 ft | 426 kts | 155° |
| 2026-05-07 20:19 | 53.33420 | -2.72199 | 25066 ft | 425 kts | 156° |
| 2026-05-07 20:20 | 53.30782 | -2.69960 | 25079 ft | 425 kts | 155° |
| 2026-05-07 20:20 | 53.28140 | -2.67731 | 25071 ft | 426 kts | 156° |
| 2026-05-07 20:20 | 53.25498 | -2.65493 | 25065 ft | 426 kts | 155° |
| 2026-05-07 20:20 | 53.22848 | -2.63264 | 25074 ft | 426 kts | 156° |
| 2026-05-07 20:21 | 53.20211 | -2.61040 | 25073 ft | 426 kts | 155° |
| 2026-05-07 20:21 | 53.17564 | -2.58818 | 25071 ft | 426 kts | 156° |
| 2026-05-07 20:21 | 53.14917 | -2.56590 | 25070 ft | 426 kts | 155° |
| 2026-05-07 20:21 | 53.12265 | -2.54372 | 25075 ft | 426 kts | 156° |
| 2026-05-07 20:22 | 53.09614 | -2.52146 | 25073 ft | 426 kts | 155° |
| 2026-05-07 20:22 | 53.06964 | -2.49935 | 25072 ft | 426 kts | 156° |
| 2026-05-07 20:22 | 53.04312 | -2.47718 | 25075 ft | 426 kts | 155° |
| 2026-05-07 20:22 | 53.01657 | -2.45502 | 25071 ft | 427 kts | 156° |
| 2026-05-07 20:23 | 52.99004 | -2.43295 | 25074 ft | 427 kts | 155° |
| 2026-05-07 20:23 | 52.96352 | -2.41090 | 25076 ft | 426 kts | 156° |
| 2026-05-07 20:23 | 52.93705 | -2.38891 | 25074 ft | 426 kts | 155° |
| 2026-05-07 20:23 | 52.91086 | -2.36717 | 25074 ft | 426 kts | 156° |
| 2026-05-07 20:24 | 52.88428 | -2.34520 | 25077 ft | 427 kts | 155° |
| 2026-05-07 20:24 | 52.85767 | -2.32315 | 25076 ft | 427 kts | 156° |
| 2026-05-07 20:24 | 52.83123 | -2.30136 | 25085 ft | 426 kts | 156° |
| 2026-05-07 20:24 | 52.80490 | -2.27957 | 25084 ft | 426 kts | 156° |
| 2026-05-07 20:25 | 52.77825 | -2.25772 | 25087 ft | 426 kts | 156° |
| 2026-05-07 20:25 | 52.75176 | -2.23582 | 25081 ft | 427 kts | 156° |
| 2026-05-07 20:25 | 52.72768 | -2.21613 | 25082 ft | 426 kts | 156° |
| 2026-05-07 20:25 | 52.70057 | -2.19382 | 25082 ft | 426 kts | 156° |
| 2026-05-07 20:26 | 52.67407 | -2.17217 | 25086 ft | 426 kts | 156° |
| 2026-05-07 20:26 | 52.64752 | -2.15040 | 25084 ft | 426 kts | 156° |
| 2026-05-07 20:26 | 52.62095 | -2.12872 | 25084 ft | 426 kts | 156° |
| 2026-05-07 20:26 | 52.59443 | -2.10708 | 25087 ft | 426 kts | 156° |
| 2026-05-07 20:27 | 52.56792 | -2.08546 | 25085 ft | 425 kts | 156° |
| 2026-05-07 20:27 | 52.54135 | -2.06387 | 25087 ft | 426 kts | 156° |
| 2026-05-07 20:27 | 52.51482 | -2.04228 | 25093 ft | 426 kts | 156° |
| 2026-05-07 20:27 | 52.48827 | -2.02078 | 25094 ft | 426 kts | 156° |
| 2026-05-07 20:28 | 52.46172 | -1.99919 | 25094 ft | 425 kts | 156° |
| 2026-05-07 20:28 | 52.43515 | -1.97777 | 25096 ft | 425 kts | 156° |
| 2026-05-07 20:28 | 52.40867 | -1.95629 | 25097 ft | 425 kts | 156° |
| 2026-05-07 20:28 | 52.38209 | -1.93494 | 25093 ft | 425 kts | 156° |
| 2026-05-07 20:29 | 52.35561 | -1.91348 | 24898 ft | 424 kts | 156° |
| 2026-05-07 20:29 | 52.32927 | -1.89236 | 24227 ft | 420 kts | 156° |
| 2026-05-07 20:29 | 52.30314 | -1.87130 | 23303 ft | 415 kts | 156° |
| 2026-05-07 20:29 | 52.27778 | -1.85100 | 22302 ft | 409 kts | 156° |
| 2026-05-07 20:30 | 52.25244 | -1.83061 | 21335 ft | 402 kts | 156° |
| 2026-05-07 20:30 | 52.22726 | -1.81056 | 20619 ft | 402 kts | 156° |
| 2026-05-07 20:30 | 52.20256 | -1.79067 | 20331 ft | 393 kts | 156° |
| 2026-05-07 20:30 | 52.17798 | -1.77114 | 20213 ft | 393 kts | 156° |
| 2026-05-07 20:31 | 52.15342 | -1.75147 | 20165 ft | 394 kts | 156° |
| 2026-05-07 20:31 | 52.12886 | -1.73176 | 20137 ft | 394 kts | 155° |
| 2026-05-07 20:31 | 52.10444 | -1.71142 | 20121 ft | 394 kts | 154° |
| 2026-05-07 20:31 | 52.08094 | -1.68848 | 20111 ft | 396 kts | 147° |
| 2026-05-07 20:32 | 52.05817 | -1.66336 | 20111 ft | 395 kts | 150° |
| 2026-05-07 20:32 | 52.03488 | -1.63946 | 20113 ft | 396 kts | 148° |
| 2026-05-07 20:32 | 52.01405 | -1.61658 | 20106 ft | 396 kts | 148° |
| 2026-05-07 20:32 | 51.99090 | -1.59250 | 20097 ft | 395 kts | 149° |
| 2026-05-07 20:33 | 51.96793 | -1.56800 | 20096 ft | 395 kts | 148° |
| 2026-05-07 20:33 | 51.94483 | -1.54363 | 20101 ft | 395 kts | 149° |
| 2026-05-07 20:33 | 51.92175 | -1.51931 | 20099 ft | 396 kts | 148° |
| 2026-05-07 20:33 | 51.89874 | -1.49499 | 20103 ft | 395 kts | 149° |
| 2026-05-07 20:34 | 51.87591 | -1.47102 | 20085 ft | 380 kts | 149° |
| 2026-05-07 20:34 | 51.85459 | -1.44846 | 20069 ft | 354 kts | 149° |
| 2026-05-07 20:34 | 51.83458 | -1.42759 | 20067 ft | 330 kts | 149° |
| 2026-05-07 20:34 | 51.81576 | -1.40781 | 20079 ft | 319 kts | 149° |
| 2026-05-07 20:35 | 51.79705 | -1.38830 | 20104 ft | 321 kts | 149° |
| 2026-05-07 20:35 | 51.77827 | -1.36854 | 20106 ft | 322 kts | 149° |
| 2026-05-07 20:35 | 51.75950 | -1.34894 | 20109 ft | 321 kts | 149° |
| 2026-05-07 20:35 | 51.74103 | -1.32960 | 20109 ft | 321 kts | 149° |
| 2026-05-07 20:36 | 51.72203 | -1.30982 | 19981 ft | 321 kts | 149° |
| 2026-05-07 20:36 | 51.70334 | -1.29030 | 19511 ft | 319 kts | 149° |
| 2026-05-07 20:36 | 51.68477 | -1.27094 | 18987 ft | 317 kts | 149° |
| 2026-05-07 20:36 | 51.66634 | -1.25177 | 18458 ft | 314 kts | 149° |
| 2026-05-07 20:37 | 51.64823 | -1.23294 | 17895 ft | 312 kts | 149° |
| 2026-05-07 20:37 | 51.63007 | -1.21413 | 17322 ft | 309 kts | 149° |
| 2026-05-07 20:37 | 51.61210 | -1.19542 | 16769 ft | 306 kts | 149° |
| 2026-05-07 20:37 | 51.59402 | -1.17670 | 16213 ft | 303 kts | 149° |
| 2026-05-07 20:38 | 51.57659 | -1.15865 | 15692 ft | 301 kts | 149° |
| 2026-05-07 20:38 | 51.55889 | -1.14036 | 15367 ft | 301 kts | 149° |
| 2026-05-07 20:38 | 51.54143 | -1.12228 | 15221 ft | 296 kts | 149° |
| 2026-05-07 20:38 | 51.52412 | -1.10438 | 15167 ft | 297 kts | 149° |
| 2026-05-07 20:39 | 51.50671 | -1.08648 | 15140 ft | 297 kts | 149° |
| 2026-05-07 20:39 | 51.48931 | -1.06847 | 15118 ft | 297 kts | 149° |
| 2026-05-07 20:39 | 51.47197 | -1.05068 | 15111 ft | 296 kts | 149° |
| 2026-05-07 20:39 | 51.45455 | -1.03272 | 15106 ft | 297 kts | 149° |
| 2026-05-07 20:40 | 51.43713 | -1.01482 | 15109 ft | 297 kts | 149° |
| 2026-05-07 20:40 | 51.41976 | -0.99698 | 15121 ft | 296 kts | 149° |
| 2026-05-07 20:40 | 51.40236 | -0.97910 | 15122 ft | 297 kts | 149° |
| 2026-05-07 20:40 | 51.38493 | -0.96126 | 15123 ft | 298 kts | 149° |
| 2026-05-07 20:41 | 51.37343 | -0.94942 | 15123 ft | 297 kts | 149° |
| 2026-05-07 20:41 | 51.35138 | -0.92694 | 15123 ft | 297 kts | 149° |
| 2026-05-07 20:41 | 51.33399 | -0.90908 | 15125 ft | 297 kts | 149° |
| 2026-05-07 20:41 | 51.31655 | -0.89134 | 15126 ft | 297 kts | 149° |
| 2026-05-07 20:42 | 51.29910 | -0.87349 | 15127 ft | 297 kts | 149° |
| 2026-05-07 20:42 | 51.28168 | -0.85570 | 15126 ft | 297 kts | 149° |
| 2026-05-07 20:42 | 51.26425 | -0.83801 | 15124 ft | 297 kts | 149° |
| 2026-05-07 20:42 | 51.24683 | -0.82020 | 15128 ft | 298 kts | 149° |
| 2026-05-07 20:43 | 51.22937 | -0.80252 | 15124 ft | 298 kts | 149° |
| 2026-05-07 20:43 | 51.21191 | -0.78472 | 15124 ft | 297 kts | 149° |
| 2026-05-07 20:43 | 51.19468 | -0.76727 | 15125 ft | 297 kts | 149° |
| 2026-05-07 20:43 | 51.17723 | -0.74955 | 15124 ft | 297 kts | 149° |
| 2026-05-07 20:44 | 51.15973 | -0.73184 | 15123 ft | 298 kts | 150° |
| 2026-05-07 20:44 | 51.14267 | -0.71456 | 15116 ft | 292 kts | 149° |
| 2026-05-07 20:44 | 51.12609 | -0.69774 | 15094 ft | 273 kts | 150° |
| 2026-05-07 20:44 | 51.11060 | -0.68213 | 15039 ft | 256 kts | 150° |
| 2026-05-07 20:45 | 51.09595 | -0.66731 | 14945 ft | 242 kts | 150° |
| 2026-05-07 20:45 | 51.08211 | -0.65341 | 14816 ft | 230 kts | 150° |
| 2026-05-07 20:45 | 51.06934 | -0.64033 | 14676 ft | 219 kts | 147° |
| 2026-05-07 20:45 | 51.06244 | -0.63112 | 14540 ft | 217 kts | 136° |
| 2026-05-07 20:46 | 51.05281 | -0.61269 | 14178 ft | 218 kts | 129° |
| 2026-05-07 20:46 | 51.04407 | -0.59298 | 13830 ft | 218 kts | 125° |
| 2026-05-07 20:46 | 51.03694 | -0.57168 | 13458 ft | 219 kts | 116° |
| 2026-05-07 20:46 | 51.03065 | -0.54978 | 13085 ft | 217 kts | 120° |
| 2026-05-07 20:47 | 51.02360 | -0.52868 | 12718 ft | 216 kts | 120° |
| 2026-05-07 20:47 | 51.01657 | -0.50755 | 12344 ft | 216 kts | 121° |
| 2026-05-07 20:47 | 51.00942 | -0.48657 | 11993 ft | 215 kts | 121° |
| 2026-05-07 20:47 | 51.00243 | -0.46555 | 11645 ft | 215 kts | 120° |
| 2026-05-07 20:48 | 50.99544 | -0.44456 | 11287 ft | 215 kts | 120° |
| 2026-05-07 20:48 | 50.98840 | -0.42363 | 10937 ft | 214 kts | 120° |
| 2026-05-07 20:48 | 50.98143 | -0.40273 | 10615 ft | 214 kts | 120° |
| 2026-05-07 20:48 | 50.97439 | -0.38194 | 10276 ft | 214 kts | 120° |
| 2026-05-07 20:49 | 50.96741 | -0.36118 | 9950 ft | 213 kts | 120° |
| 2026-05-07 20:49 | 50.96045 | -0.34041 | 9617 ft | 212 kts | 120° |
| 2026-05-07 20:49 | 50.95349 | -0.32000 | 9304 ft | 209 kts | 120° |
| 2026-05-07 20:49 | 50.94673 | -0.29973 | 8974 ft | 207 kts | 119° |
| 2026-05-07 20:50 | 50.93993 | -0.27967 | 8655 ft | 206 kts | 120° |
| 2026-05-07 20:50 | 50.93318 | -0.25972 | 8350 ft | 205 kts | 119° |
| 2026-05-07 20:50 | 50.92652 | -0.23995 | 8134 ft | 201 kts | 119° |
| 2026-05-07 20:50 | 50.91966 | -0.21980 | 8125 ft | 222 kts | 119° |
| 2026-05-07 20:51 | 50.91278 | -0.19925 | 9495 ft | 209 kts | 119° |
| 2026-05-07 20:51 | 50.90593 | -0.17861 | 10461 ft | 211 kts | 120° |
| 2026-05-07 20:51 | 50.89932 | -0.15841 | 11535 ft | 203 kts | 119° |
| 2026-05-07 20:51 | 50.89300 | -0.13848 | 12398 ft | 204 kts | 118° |
| 2026-05-07 20:52 | 50.88635 | -0.11694 | 12973 ft | 229 kts | 118° |
| 2026-05-07 20:52 | 50.87967 | -0.09432 | 14194 ft | 220 kts | 117° |
| 2026-05-07 20:52 | 50.87317 | -0.07115 | 14678 ft | 256 kts | 116° |
| 2026-05-07 20:52 | 50.86464 | -0.04123 | 14171 ft | 323 kts | 117° |
| 2026-05-07 20:53 | 50.85699 | -0.01565 | 17639 ft | 173 kts | 121° |
| 2026-05-07 20:53 | 50.85194 | -0.00387 | 20002 ft | 113 kts | 149° |
| 2026-05-07 20:53 | 50.84639 | 0.00427 | 18262 ft | 167 kts | 143° |
| 2026-05-07 20:53 | 50.83333 | 0.02867 | 15222 ft | 380 kts | 125° |
| 2026-05-07 20:54 | 50.82276 | 0.05962 | 17938 ft | 202 kts | 111° |